sensor_id;sensor_type;location;lat;lon;timestamp;temperature;humidity
26278;DHT22;14000;52.056;8.510;2023-05-10T00:04:29;14.30;99.90
26278;DHT22;14000;52.056;8.510;2023-05-10T00:06:54;14.30;99.90
26278;DHT22;14000;52.056;8.510;2023-05-10T00:09:20;14.30;99.90
26278;DHT22;14000;52.056;8.510;2023-05-10T00:11:45;14.30;99.90
26278;DHT22;14000;52.056;8.510;2023-05-10T00:14:11;14.40;99.90
26278;DHT22;14000;52.056;8.510;2023-05-10T00:16:37;14.30;99.90
26278;DHT22;14000;52.056;8.510;2023-05-10T00:19:02;14.40;99.90
26278;DHT22;14000;52.056;8.510;2023-05-10T00:21:28;14.30;99.90
26278;DHT22;14000;52.056;8.510;2023-05-10T00:23:54;14.40;99.90
26278;DHT22;14000;52.056;8.510;2023-05-10T00:26:20;14.30;99.90
26278;DHT22;14000;52.056;8.510;2023-05-10T00:28:45;14.30;99.90
26278;DHT22;14000;52.056;8.510;2023-05-10T00:31:11;14.30;99.90
26278;DHT22;14000;52.056;8.510;2023-05-10T00:33:37;14.30;99.90
26278;DHT22;14000;52.056;8.510;2023-05-10T00:36:02;14.30;99.90
26278;DHT22;14000;52.056;8.510;2023-05-10T00:38:28;14.30;99.90
26278;DHT22;14000;52.056;8.510;2023-05-10T00:40:54;14.30;99.90
26278;DHT22;14000;52.056;8.510;2023-05-10T00:43:19;14.30;99.90
26278;DHT22;14000;52.056;8.510;2023-05-10T00:45:45;14.20;99.90
26278;DHT22;14000;52.056;8.510;2023-05-10T00:48:11;14.20;99.90
26278;DHT22;14000;52.056;8.510;2023-05-10T00:50:38;14.20;99.90
26278;DHT22;14000;52.056;8.510;2023-05-10T00:53:04;14.20;99.90
26278;DHT22;14000;52.056;8.510;2023-05-10T00:55:30;14.20;99.90
26278;DHT22;14000;52.056;8.510;2023-05-10T00:57:56;14.20;99.90
26278;DHT22;14000;52.056;8.510;2023-05-10T01:00:22;14.20;99.90
26278;DHT22;14000;52.056;8.510;2023-05-10T01:02:47;14.30;99.90
26278;DHT22;14000;52.056;8.510;2023-05-10T01:05:13;14.20;99.90
26278;DHT22;14000;52.056;8.510;2023-05-10T01:07:39;14.20;99.90
26278;DHT22;14000;52.056;8.510;2023-05-10T01:10:06;14.20;99.90
26278;DHT22;14000;52.056;8.510;2023-05-10T01:12:36;14.20;99.90
26278;DHT22;14000;52.056;8.510;2023-05-10T01:15:03;14.10;99.90
26278;DHT22;14000;52.056;8.510;2023-05-10T01:17:30;14.20;99.90
26278;DHT22;14000;52.056;8.510;2023-05-10T01:19:56;14.20;99.90
26278;DHT22;14000;52.056;8.510;2023-05-10T01:33:30;14.20;99.90
26278;DHT22;14000;52.056;8.510;2023-05-10T01:36:26;14.10;99.90
26278;DHT22;14000;52.056;8.510;2023-05-10T01:41:46;14.10;99.90
26278;DHT22;14000;52.056;8.510;2023-05-10T01:44:20;14.10;99.90
26278;DHT22;14000;52.056;8.510;2023-05-10T01:46:54;14.10;99.90
26278;DHT22;14000;52.056;8.510;2023-05-10T01:49:29;14.10;99.90
26278;DHT22;14000;52.056;8.510;2023-05-10T01:52:00;14.10;99.90
26278;DHT22;14000;52.056;8.510;2023-05-10T01:54:28;14.10;99.90
26278;DHT22;14000;52.056;8.510;2023-05-10T01:57:01;14.10;99.90
26278;DHT22;14000;52.056;8.510;2023-05-10T01:59:30;14.10;99.90
26278;DHT22;14000;52.056;8.510;2023-05-10T02:01:58;14.10;99.90
26278;DHT22;14000;52.056;8.510;2023-05-10T02:04:25;14.00;99.90
26278;DHT22;14000;52.056;8.510;2023-05-10T02:06:53;14.00;99.90
26278;DHT22;14000;52.056;8.510;2023-05-10T02:09:20;14.00;99.90
26278;DHT22;14000;52.056;8.510;2023-05-10T02:11:48;14.00;99.90
26278;DHT22;14000;52.056;8.510;2023-05-10T02:14:14;14.00;99.90
26278;DHT22;14000;52.056;8.510;2023-05-10T02:16:41;13.90;99.90
26278;DHT22;14000;52.056;8.510;2023-05-10T02:19:09;13.90;99.90
26278;DHT22;14000;52.056;8.510;2023-05-10T02:21:35;13.80;99.90
26278;DHT22;14000;52.056;8.510;2023-05-10T02:24:02;13.80;99.90
26278;DHT22;14000;52.056;8.510;2023-05-10T02:26:29;13.70;99.90
26278;DHT22;14000;52.056;8.510;2023-05-10T02:28:57;13.70;99.90
26278;DHT22;14000;52.056;8.510;2023-05-10T02:31:23;13.70;99.90
26278;DHT22;14000;52.056;8.510;2023-05-10T02:33:50;13.60;99.90
26278;DHT22;14000;52.056;8.510;2023-05-10T02:36:16;13.70;99.90
26278;DHT22;14000;52.056;8.510;2023-05-10T02:38:43;13.60;99.90
26278;DHT22;14000;52.056;8.510;2023-05-10T02:41:10;13.50;99.90
26278;DHT22;14000;52.056;8.510;2023-05-10T02:43:37;13.60;99.90
26278;DHT22;14000;52.056;8.510;2023-05-10T02:46:04;13.50;99.90
26278;DHT22;14000;52.056;8.510;2023-05-10T02:48:30;13.50;99.90
26278;DHT22;14000;52.056;8.510;2023-05-10T02:51:01;13.60;99.90
26278;DHT22;14000;52.056;8.510;2023-05-10T02:53:31;13.60;99.90
26278;DHT22;14000;52.056;8.510;2023-05-10T02:56:01;13.60;99.90
26278;DHT22;14000;52.056;8.510;2023-05-10T02:58:29;13.50;99.90
26278;DHT22;14000;52.056;8.510;2023-05-10T03:00:54;13.60;99.90
26278;DHT22;14000;52.056;8.510;2023-05-10T03:03:20;13.50;99.90
26278;DHT22;14000;52.056;8.510;2023-05-10T03:05:46;13.50;99.90
26278;DHT22;14000;52.056;8.510;2023-05-10T03:08:12;13.40;99.90
26278;DHT22;14000;52.056;8.510;2023-05-10T03:16:56;13.40;99.90
26278;DHT22;14000;52.056;8.510;2023-05-10T03:19:26;13.40;99.90
26278;DHT22;14000;52.056;8.510;2023-05-10T03:21:53;13.30;99.90
26278;DHT22;14000;52.056;8.510;2023-05-10T03:24:22;13.30;99.90
26278;DHT22;14000;52.056;8.510;2023-05-10T03:26:49;13.20;99.90
26278;DHT22;14000;52.056;8.510;2023-05-10T03:29:17;13.30;99.90
26278;DHT22;14000;52.056;8.510;2023-05-10T03:31:42;13.40;99.90
26278;DHT22;14000;52.056;8.510;2023-05-10T03:34:08;13.30;99.90
26278;DHT22;14000;52.056;8.510;2023-05-10T03:36:34;13.30;99.90
26278;DHT22;14000;52.056;8.510;2023-05-10T03:38:59;13.30;99.90
26278;DHT22;14000;52.056;8.510;2023-05-10T03:41:25;13.30;99.90
26278;DHT22;14000;52.056;8.510;2023-05-10T03:43:51;13.30;99.90
26278;DHT22;14000;52.056;8.510;2023-05-10T03:46:17;13.30;99.90
26278;DHT22;14000;52.056;8.510;2023-05-10T03:48:42;13.30;99.90
26278;DHT22;14000;52.056;8.510;2023-05-10T03:51:08;13.20;99.90
26278;DHT22;14000;52.056;8.510;2023-05-10T03:53:33;13.20;99.90
26278;DHT22;14000;52.056;8.510;2023-05-10T03:55:59;13.20;99.90
26278;DHT22;14000;52.056;8.510;2023-05-10T03:58:25;13.20;99.90
26278;DHT22;14000;52.056;8.510;2023-05-10T04:00:51;13.10;99.90
26278;DHT22;14000;52.056;8.510;2023-05-10T04:03:17;13.10;99.90
26278;DHT22;14000;52.056;8.510;2023-05-10T04:05:43;13.10;99.90
26278;DHT22;14000;52.056;8.510;2023-05-10T04:08:08;13.10;99.90
26278;DHT22;14000;52.056;8.510;2023-05-10T04:10:34;13.10;99.90
26278;DHT22;14000;52.056;8.510;2023-05-10T04:13:00;13.10;99.90
26278;DHT22;14000;52.056;8.510;2023-05-10T04:15:25;13.10;99.90
26278;DHT22;14000;52.056;8.510;2023-05-10T04:17:51;13.10;99.90
26278;DHT22;14000;52.056;8.510;2023-05-10T04:20:17;13.00;99.90
26278;DHT22;14000;52.056;8.510;2023-05-10T04:22:42;13.00;99.90
26278;DHT22;14000;52.056;8.510;2023-05-10T04:25:08;12.90;99.90
26278;DHT22;14000;52.056;8.510;2023-05-10T04:27:34;12.90;99.90
26278;DHT22;14000;52.056;8.510;2023-05-10T04:30:00;12.90;99.90
26278;DHT22;14000;52.056;8.510;2023-05-10T04:32:25;12.90;99.90
26278;DHT22;14000;52.056;8.510;2023-05-10T04:34:51;12.80;99.90
26278;DHT22;14000;52.056;8.510;2023-05-10T04:37:17;12.80;99.90
26278;DHT22;14000;52.056;8.510;2023-05-10T04:39:43;12.70;99.90
26278;DHT22;14000;52.056;8.510;2023-05-10T04:42:09;12.80;99.90
26278;DHT22;14000;52.056;8.510;2023-05-10T04:44:35;12.70;99.90
26278;DHT22;14000;52.056;8.510;2023-05-10T04:47:01;12.70;99.90
26278;DHT22;14000;52.056;8.510;2023-05-10T04:49:27;12.70;99.90
26278;DHT22;14000;52.056;8.510;2023-05-10T04:51:53;12.70;99.90
26278;DHT22;14000;52.056;8.510;2023-05-10T04:54:19;12.70;99.90
26278;DHT22;14000;52.056;8.510;2023-05-10T04:56:44;12.70;99.90
26278;DHT22;14000;52.056;8.510;2023-05-10T04:59:10;12.70;99.90
26278;DHT22;14000;52.056;8.510;2023-05-10T05:01:35;12.70;99.90
26278;DHT22;14000;52.056;8.510;2023-05-10T05:04:01;12.70;99.90
26278;DHT22;14000;52.056;8.510;2023-05-10T05:06:27;12.70;99.90
26278;DHT22;14000;52.056;8.510;2023-05-10T05:08:52;12.60;99.90
26278;DHT22;14000;52.056;8.510;2023-05-10T05:11:18;12.70;99.90
26278;DHT22;14000;52.056;8.510;2023-05-10T05:13:44;12.70;99.90
26278;DHT22;14000;52.056;8.510;2023-05-10T05:16:09;12.70;99.90
26278;DHT22;14000;52.056;8.510;2023-05-10T05:18:36;12.70;99.90
26278;DHT22;14000;52.056;8.510;2023-05-10T05:21:01;12.70;99.90
26278;DHT22;14000;52.056;8.510;2023-05-10T05:23:27;12.70;99.90
26278;DHT22;14000;52.056;8.510;2023-05-10T05:25:53;12.60;99.90
26278;DHT22;14000;52.056;8.510;2023-05-10T05:28:21;12.60;99.90
26278;DHT22;14000;52.056;8.510;2023-05-10T05:30:47;12.60;99.90
26278;DHT22;14000;52.056;8.510;2023-05-10T05:33:16;12.70;99.90
26278;DHT22;14000;52.056;8.510;2023-05-10T05:35:41;12.60;99.90
26278;DHT22;14000;52.056;8.510;2023-05-10T05:38:10;12.70;99.90
26278;DHT22;14000;52.056;8.510;2023-05-10T05:40:35;12.70;99.90
26278;DHT22;14000;52.056;8.510;2023-05-10T05:43:01;12.70;99.90
26278;DHT22;14000;52.056;8.510;2023-05-10T05:45:26;12.60;99.90
26278;DHT22;14000;52.056;8.510;2023-05-10T05:47:52;12.60;99.90
26278;DHT22;14000;52.056;8.510;2023-05-10T05:50:17;12.60;99.90
26278;DHT22;14000;52.056;8.510;2023-05-10T05:52:43;12.60;99.90
26278;DHT22;14000;52.056;8.510;2023-05-10T05:55:08;12.50;99.90
26278;DHT22;14000;52.056;8.510;2023-05-10T05:57:34;12.50;99.90
26278;DHT22;14000;52.056;8.510;2023-05-10T06:00:00;12.60;99.90
26278;DHT22;14000;52.056;8.510;2023-05-10T06:02:25;12.50;99.90
26278;DHT22;14000;52.056;8.510;2023-05-10T06:04:51;12.50;99.90
26278;DHT22;14000;52.056;8.510;2023-05-10T06:07:16;12.50;99.90
26278;DHT22;14000;52.056;8.510;2023-05-10T06:09:42;12.40;99.90
26278;DHT22;14000;52.056;8.510;2023-05-10T06:12:07;12.40;99.90
26278;DHT22;14000;52.056;8.510;2023-05-10T06:14:33;12.40;99.90
26278;DHT22;14000;52.056;8.510;2023-05-10T06:16:58;12.40;99.90
26278;DHT22;14000;52.056;8.510;2023-05-10T06:19:25;12.30;99.90
26278;DHT22;14000;52.056;8.510;2023-05-10T06:21:51;12.40;99.90
26278;DHT22;14000;52.056;8.510;2023-05-10T06:24:17;12.40;99.90
26278;DHT22;14000;52.056;8.510;2023-05-10T06:26:42;12.30;99.90
26278;DHT22;14000;52.056;8.510;2023-05-10T06:29:08;12.40;99.90
26278;DHT22;14000;52.056;8.510;2023-05-10T06:31:34;12.30;99.90
26278;DHT22;14000;52.056;8.510;2023-05-10T06:33:59;12.30;99.90
26278;DHT22;14000;52.056;8.510;2023-05-10T06:36:25;12.30;99.90
26278;DHT22;14000;52.056;8.510;2023-05-10T06:38:51;12.40;99.90
26278;DHT22;14000;52.056;8.510;2023-05-10T06:41:17;12.40;99.90
26278;DHT22;14000;52.056;8.510;2023-05-10T06:43:43;12.40;99.90
26278;DHT22;14000;52.056;8.510;2023-05-10T06:46:08;12.40;99.90
26278;DHT22;14000;52.056;8.510;2023-05-10T06:48:34;12.50;99.90
26278;DHT22;14000;52.056;8.510;2023-05-10T06:51:00;12.50;99.90
26278;DHT22;14000;52.056;8.510;2023-05-10T06:53:25;12.50;99.90
26278;DHT22;14000;52.056;8.510;2023-05-10T06:55:51;12.50;99.90
26278;DHT22;14000;52.056;8.510;2023-05-10T06:58:16;12.50;99.90
26278;DHT22;14000;52.056;8.510;2023-05-10T07:00:42;12.40;99.90
26278;DHT22;14000;52.056;8.510;2023-05-10T07:03:09;12.50;99.90
26278;DHT22;14000;52.056;8.510;2023-05-10T07:05:36;12.50;99.90
26278;DHT22;14000;52.056;8.510;2023-05-10T07:08:01;12.50;99.90
26278;DHT22;14000;52.056;8.510;2023-05-10T07:10:27;12.60;99.90
26278;DHT22;14000;52.056;8.510;2023-05-10T07:12:52;12.60;99.90
26278;DHT22;14000;52.056;8.510;2023-05-10T07:15:18;12.60;99.90
26278;DHT22;14000;52.056;8.510;2023-05-10T07:17:44;12.60;99.90
26278;DHT22;14000;52.056;8.510;2023-05-10T07:20:11;12.60;99.90
26278;DHT22;14000;52.056;8.510;2023-05-10T07:22:36;12.60;99.90
26278;DHT22;14000;52.056;8.510;2023-05-10T07:25:02;12.60;99.90
26278;DHT22;14000;52.056;8.510;2023-05-10T07:27:28;12.60;99.90
26278;DHT22;14000;52.056;8.510;2023-05-10T07:29:53;12.60;99.90
26278;DHT22;14000;52.056;8.510;2023-05-10T07:32:20;12.60;99.90
26278;DHT22;14000;52.056;8.510;2023-05-10T07:34:45;12.70;99.90
26278;DHT22;14000;52.056;8.510;2023-05-10T07:37:11;12.80;99.90
26278;DHT22;14000;52.056;8.510;2023-05-10T07:39:37;12.80;99.90
26278;DHT22;14000;52.056;8.510;2023-05-10T07:42:02;12.90;99.90
26278;DHT22;14000;52.056;8.510;2023-05-10T07:44:28;12.90;99.90
26278;DHT22;14000;52.056;8.510;2023-05-10T07:46:54;13.00;99.90
26278;DHT22;14000;52.056;8.510;2023-05-10T07:49:19;13.00;99.90
26278;DHT22;14000;52.056;8.510;2023-05-10T07:51:45;13.00;99.90
26278;DHT22;14000;52.056;8.510;2023-05-10T07:54:10;13.20;99.90
26278;DHT22;14000;52.056;8.510;2023-05-10T07:56:36;13.20;99.90
26278;DHT22;14000;52.056;8.510;2023-05-10T07:59:03;13.20;99.90
26278;DHT22;14000;52.056;8.510;2023-05-10T08:01:33;13.30;99.90
26278;DHT22;14000;52.056;8.510;2023-05-10T08:04:00;13.40;99.90
26278;DHT22;14000;52.056;8.510;2023-05-10T08:06:25;13.40;99.90
26278;DHT22;14000;52.056;8.510;2023-05-10T08:08:55;13.50;99.90
26278;DHT22;14000;52.056;8.510;2023-05-10T08:11:21;13.50;99.90
26278;DHT22;14000;52.056;8.510;2023-05-10T08:13:48;13.40;99.90
26278;DHT22;14000;52.056;8.510;2023-05-10T08:16:15;13.40;99.90
26278;DHT22;14000;52.056;8.510;2023-05-10T08:18:41;13.50;99.90
26278;DHT22;14000;52.056;8.510;2023-05-10T08:21:06;13.40;99.90
26278;DHT22;14000;52.056;8.510;2023-05-10T08:23:32;13.50;99.90
26278;DHT22;14000;52.056;8.510;2023-05-10T08:25:58;13.50;99.90
26278;DHT22;14000;52.056;8.510;2023-05-10T08:28:24;13.60;99.90
26278;DHT22;14000;52.056;8.510;2023-05-10T08:30:50;13.60;99.90
26278;DHT22;14000;52.056;8.510;2023-05-10T08:33:17;13.70;99.90
26278;DHT22;14000;52.056;8.510;2023-05-10T08:35:43;13.80;99.90
26278;DHT22;14000;52.056;8.510;2023-05-10T08:38:08;14.10;99.90
26278;DHT22;14000;52.056;8.510;2023-05-10T08:40:34;14.10;99.90
26278;DHT22;14000;52.056;8.510;2023-05-10T08:43:07;14.20;99.90
26278;DHT22;14000;52.056;8.510;2023-05-10T08:45:37;14.10;99.90
26278;DHT22;14000;52.056;8.510;2023-05-10T08:48:05;14.10;99.90
26278;DHT22;14000;52.056;8.510;2023-05-10T08:50:31;14.10;99.90
26278;DHT22;14000;52.056;8.510;2023-05-10T08:52:59;14.10;99.90
26278;DHT22;14000;52.056;8.510;2023-05-10T08:55:25;14.20;99.90
26278;DHT22;14000;52.056;8.510;2023-05-10T08:57:51;14.30;99.90
26278;DHT22;14000;52.056;8.510;2023-05-10T09:00:18;14.40;99.90
26278;DHT22;14000;52.056;8.510;2023-05-10T09:02:44;14.30;99.90
26278;DHT22;14000;52.056;8.510;2023-05-10T09:05:11;14.30;99.90
26278;DHT22;14000;52.056;8.510;2023-05-10T09:07:37;14.20;99.90
26278;DHT22;14000;52.056;8.510;2023-05-10T09:10:04;14.30;99.90
26278;DHT22;14000;52.056;8.510;2023-05-10T09:12:30;14.20;99.90
26278;DHT22;14000;52.056;8.510;2023-05-10T09:14:57;14.10;99.90
26278;DHT22;14000;52.056;8.510;2023-05-10T09:17:25;14.00;99.90
26278;DHT22;14000;52.056;8.510;2023-05-10T09:20:03;14.00;99.90
26278;DHT22;14000;52.056;8.510;2023-05-10T09:22:32;14.00;99.90
26278;DHT22;14000;52.056;8.510;2023-05-10T09:25:07;14.00;99.90
26278;DHT22;14000;52.056;8.510;2023-05-10T09:27:34;14.00;99.90
26278;DHT22;14000;52.056;8.510;2023-05-10T09:30:00;14.10;99.90
26278;DHT22;14000;52.056;8.510;2023-05-10T09:32:52;14.20;99.90
26278;DHT22;14000;52.056;8.510;2023-05-10T09:35:19;14.30;99.90
26278;DHT22;14000;52.056;8.510;2023-05-10T09:37:48;14.40;99.90
26278;DHT22;14000;52.056;8.510;2023-05-10T09:40:19;14.40;99.90
26278;DHT22;14000;52.056;8.510;2023-05-10T09:42:56;14.30;99.90
26278;DHT22;14000;52.056;8.510;2023-05-10T09:45:23;14.40;99.90
26278;DHT22;14000;52.056;8.510;2023-05-10T09:47:49;14.40;99.90
26278;DHT22;14000;52.056;8.510;2023-05-10T09:50:15;14.50;99.90
26278;DHT22;14000;52.056;8.510;2023-05-10T09:52:47;14.60;99.90
26278;DHT22;14000;52.056;8.510;2023-05-10T09:55:13;14.70;99.90
26278;DHT22;14000;52.056;8.510;2023-05-10T09:57:39;14.80;99.90
26278;DHT22;14000;52.056;8.510;2023-05-10T10:00:06;14.90;99.90
26278;DHT22;14000;52.056;8.510;2023-05-10T10:02:32;15.00;99.90
26278;DHT22;14000;52.056;8.510;2023-05-10T10:05:01;15.20;99.90
26278;DHT22;14000;52.056;8.510;2023-05-10T10:07:26;15.20;99.90
26278;DHT22;14000;52.056;8.510;2023-05-10T10:09:53;15.20;99.90
26278;DHT22;14000;52.056;8.510;2023-05-10T10:12:19;15.20;99.90
26278;DHT22;14000;52.056;8.510;2023-05-10T10:14:46;15.20;99.90
26278;DHT22;14000;52.056;8.510;2023-05-10T10:17:13;15.30;99.90
26278;DHT22;14000;52.056;8.510;2023-05-10T10:19:39;15.40;99.90
26278;DHT22;14000;52.056;8.510;2023-05-10T10:22:05;15.40;99.90
26278;DHT22;14000;52.056;8.510;2023-05-10T10:24:31;15.30;99.90
26278;DHT22;14000;52.056;8.510;2023-05-10T10:27:03;15.30;99.90
26278;DHT22;14000;52.056;8.510;2023-05-10T10:35:03;15.20;99.90
26278;DHT22;14000;52.056;8.510;2023-05-10T10:37:45;15.40;99.90
26278;DHT22;14000;52.056;8.510;2023-05-10T10:40:28;15.60;99.90
26278;DHT22;14000;52.056;8.510;2023-05-10T10:42:55;15.70;99.90
26278;DHT22;14000;52.056;8.510;2023-05-10T10:45:22;15.80;99.90
26278;DHT22;14000;52.056;8.510;2023-05-10T10:47:48;15.90;99.90
26278;DHT22;14000;52.056;8.510;2023-05-10T10:50:15;15.80;99.90
26278;DHT22;14000;52.056;8.510;2023-05-10T10:52:45;15.90;99.90
26278;DHT22;14000;52.056;8.510;2023-05-10T10:55:19;15.90;99.90
26278;DHT22;14000;52.056;8.510;2023-05-10T11:02:57;16.10;99.90
26278;DHT22;14000;52.056;8.510;2023-05-10T11:07:58;16.00;99.90
26278;DHT22;14000;52.056;8.510;2023-05-10T11:10:25;16.00;99.90
26278;DHT22;14000;52.056;8.510;2023-05-10T11:13:00;16.00;99.90
26278;DHT22;14000;52.056;8.510;2023-05-10T11:15:33;16.00;99.90
26278;DHT22;14000;52.056;8.510;2023-05-10T11:17:59;16.00;99.90
26278;DHT22;14000;52.056;8.510;2023-05-10T11:20:29;16.10;99.90
26278;DHT22;14000;52.056;8.510;2023-05-10T11:23:13;16.30;99.90
26278;DHT22;14000;52.056;8.510;2023-05-10T11:25:45;17.20;99.90
26278;DHT22;14000;52.056;8.510;2023-05-10T11:28:13;18.30;99.90
26278;DHT22;14000;52.056;8.510;2023-05-10T11:30:40;19.30;99.90
26278;DHT22;14000;52.056;8.510;2023-05-10T11:33:07;19.60;99.90
26278;DHT22;14000;52.056;8.510;2023-05-10T11:35:37;19.90;99.90
26278;DHT22;14000;52.056;8.510;2023-05-10T11:38:09;20.60;99.90
26278;DHT22;14000;52.056;8.510;2023-05-10T11:40:35;21.60;99.90
26278;DHT22;14000;52.056;8.510;2023-05-10T11:43:02;22.50;99.90
26278;DHT22;14000;52.056;8.510;2023-05-10T11:45:28;23.30;99.90
26278;DHT22;14000;52.056;8.510;2023-05-10T11:47:55;23.00;99.90
26278;DHT22;14000;52.056;8.510;2023-05-10T11:50:22;22.20;99.90
26278;DHT22;14000;52.056;8.510;2023-05-10T11:52:51;21.30;99.90
26278;DHT22;14000;52.056;8.510;2023-05-10T11:55:17;20.30;99.90
26278;DHT22;14000;52.056;8.510;2023-05-10T11:57:43;19.40;99.90
26278;DHT22;14000;52.056;8.510;2023-05-10T12:00:14;19.00;99.90
26278;DHT22;14000;52.056;8.510;2023-05-10T12:02:40;18.80;99.90
26278;DHT22;14000;52.056;8.510;2023-05-10T12:05:06;18.60;99.90
26278;DHT22;14000;52.056;8.510;2023-05-10T12:07:32;18.30;99.90
26278;DHT22;14000;52.056;8.510;2023-05-10T12:10:06;18.10;99.90
26278;DHT22;14000;52.056;8.510;2023-05-10T12:12:39;17.70;99.90
26278;DHT22;14000;52.056;8.510;2023-05-10T12:15:17;17.50;99.90
26278;DHT22;14000;52.056;8.510;2023-05-10T12:17:44;17.40;99.90
26278;DHT22;14000;52.056;8.510;2023-05-10T12:20:17;17.30;99.90
26278;DHT22;14000;52.056;8.510;2023-05-10T12:22:49;17.20;99.90
26278;DHT22;14000;52.056;8.510;2023-05-10T12:25:14;17.30;99.90
26278;DHT22;14000;52.056;8.510;2023-05-10T12:27:41;17.30;99.90
26278;DHT22;14000;52.056;8.510;2023-05-10T12:30:07;17.40;99.90
26278;DHT22;14000;52.056;8.510;2023-05-10T12:32:43;17.40;99.90
26278;DHT22;14000;52.056;8.510;2023-05-10T12:35:09;17.40;99.90
26278;DHT22;14000;52.056;8.510;2023-05-10T12:37:35;17.50;99.90
26278;DHT22;14000;52.056;8.510;2023-05-10T12:40:06;17.40;99.90
26278;DHT22;14000;52.056;8.510;2023-05-10T12:42:32;17.40;99.90
26278;DHT22;14000;52.056;8.510;2023-05-10T12:44:58;17.40;99.90
26278;DHT22;14000;52.056;8.510;2023-05-10T12:47:23;17.40;99.90
26278;DHT22;14000;52.056;8.510;2023-05-10T12:49:49;17.40;99.90
26278;DHT22;14000;52.056;8.510;2023-05-10T12:52:14;17.40;99.90
26278;DHT22;14000;52.056;8.510;2023-05-10T12:54:40;17.40;99.90
26278;DHT22;14000;52.056;8.510;2023-05-10T12:57:05;17.50;99.90
26278;DHT22;14000;52.056;8.510;2023-05-10T12:59:31;17.60;99.90
26278;DHT22;14000;52.056;8.510;2023-05-10T13:01:57;17.90;99.90
26278;DHT22;14000;52.056;8.510;2023-05-10T13:04:23;18.20;99.90
26278;DHT22;14000;52.056;8.510;2023-05-10T13:06:48;18.40;99.90
26278;DHT22;14000;52.056;8.510;2023-05-10T13:09:14;18.60;99.90
26278;DHT22;14000;52.056;8.510;2023-05-10T13:11:40;18.80;99.90
26278;DHT22;14000;52.056;8.510;2023-05-10T13:14:06;18.90;99.90
26278;DHT22;14000;52.056;8.510;2023-05-10T13:16:32;18.90;99.90
26278;DHT22;14000;52.056;8.510;2023-05-10T13:18:58;18.80;99.90
26278;DHT22;14000;52.056;8.510;2023-05-10T13:21:23;18.70;99.90
26278;DHT22;14000;52.056;8.510;2023-05-10T13:23:50;18.60;99.90
26278;DHT22;14000;52.056;8.510;2023-05-10T13:26:16;18.30;99.90
26278;DHT22;14000;52.056;8.510;2023-05-10T13:28:41;18.00;99.90
26278;DHT22;14000;52.056;8.510;2023-05-10T13:31:07;17.60;99.90
26278;DHT22;14000;52.056;8.510;2023-05-10T13:33:33;17.30;99.90
26278;DHT22;14000;52.056;8.510;2023-05-10T13:35:58;16.90;99.90
26278;DHT22;14000;52.056;8.510;2023-05-10T13:38:24;16.40;99.90
26278;DHT22;14000;52.056;8.510;2023-05-10T13:40:49;15.80;99.90
26278;DHT22;14000;52.056;8.510;2023-05-10T13:43:18;15.40;99.90
26278;DHT22;14000;52.056;8.510;2023-05-10T13:45:43;15.00;99.90
26278;DHT22;14000;52.056;8.510;2023-05-10T13:48:09;14.70;99.90
26278;DHT22;14000;52.056;8.510;2023-05-10T13:50:35;14.60;99.90
26278;DHT22;14000;52.056;8.510;2023-05-10T13:53:00;14.50;99.90
26278;DHT22;14000;52.056;8.510;2023-05-10T13:55:26;14.40;99.90
26278;DHT22;14000;52.056;8.510;2023-05-10T13:57:51;14.30;99.90
26278;DHT22;14000;52.056;8.510;2023-05-10T14:00:17;14.30;99.90
26278;DHT22;14000;52.056;8.510;2023-05-10T14:02:43;14.20;99.90
26278;DHT22;14000;52.056;8.510;2023-05-10T14:05:08;14.30;99.90
26278;DHT22;14000;52.056;8.510;2023-05-10T14:07:34;14.30;99.90
26278;DHT22;14000;52.056;8.510;2023-05-10T14:10:00;14.30;99.90
26278;DHT22;14000;52.056;8.510;2023-05-10T14:12:27;14.30;99.90
26278;DHT22;14000;52.056;8.510;2023-05-10T14:14:52;14.30;99.90
26278;DHT22;14000;52.056;8.510;2023-05-10T14:17:18;14.40;99.90
26278;DHT22;14000;52.056;8.510;2023-05-10T14:19:44;14.40;99.90
26278;DHT22;14000;52.056;8.510;2023-05-10T14:22:10;14.40;99.90
26278;DHT22;14000;52.056;8.510;2023-05-10T14:24:35;14.40;99.90
26278;DHT22;14000;52.056;8.510;2023-05-10T14:27:01;14.40;99.90
26278;DHT22;14000;52.056;8.510;2023-05-10T14:29:27;14.50;99.90
26278;DHT22;14000;52.056;8.510;2023-05-10T14:31:52;14.50;99.90
26278;DHT22;14000;52.056;8.510;2023-05-10T14:34:18;14.70;99.90
26278;DHT22;14000;52.056;8.510;2023-05-10T14:36:43;14.80;99.90
26278;DHT22;14000;52.056;8.510;2023-05-10T14:39:09;15.00;99.90
26278;DHT22;14000;52.056;8.510;2023-05-10T14:41:35;15.10;99.90
26278;DHT22;14000;52.056;8.510;2023-05-10T14:44:01;15.30;99.90
26278;DHT22;14000;52.056;8.510;2023-05-10T14:46:28;15.40;99.90
26278;DHT22;14000;52.056;8.510;2023-05-10T14:48:55;15.40;99.90
26278;DHT22;14000;52.056;8.510;2023-05-10T14:51:20;15.40;99.90
26278;DHT22;14000;52.056;8.510;2023-05-10T14:53:48;15.50;99.90
26278;DHT22;14000;52.056;8.510;2023-05-10T14:56:14;15.40;99.90
26278;DHT22;14000;52.056;8.510;2023-05-10T14:58:40;15.30;99.90
26278;DHT22;14000;52.056;8.510;2023-05-10T15:01:05;15.40;99.90
26278;DHT22;14000;52.056;8.510;2023-05-10T15:03:31;15.40;99.90
26278;DHT22;14000;52.056;8.510;2023-05-10T15:05:56;15.50;99.90
26278;DHT22;14000;52.056;8.510;2023-05-10T15:08:23;15.40;99.90
26278;DHT22;14000;52.056;8.510;2023-05-10T15:10:50;15.50;99.90
26278;DHT22;14000;52.056;8.510;2023-05-10T15:13:16;15.60;99.90
26278;DHT22;14000;52.056;8.510;2023-05-10T15:15:42;15.70;99.90
26278;DHT22;14000;52.056;8.510;2023-05-10T15:18:08;15.70;99.90
26278;DHT22;14000;52.056;8.510;2023-05-10T15:20:34;15.60;99.90
26278;DHT22;14000;52.056;8.510;2023-05-10T15:23:00;15.70;99.90
26278;DHT22;14000;52.056;8.510;2023-05-10T15:25:26;15.60;99.90
26278;DHT22;14000;52.056;8.510;2023-05-10T15:27:52;15.60;99.90
26278;DHT22;14000;52.056;8.510;2023-05-10T15:30:18;15.60;99.90
26278;DHT22;14000;52.056;8.510;2023-05-10T15:32:44;15.60;99.90
26278;DHT22;14000;52.056;8.510;2023-05-10T15:35:09;15.50;99.90
26278;DHT22;14000;52.056;8.510;2023-05-10T15:37:36;15.40;99.90
26278;DHT22;14000;52.056;8.510;2023-05-10T15:40:01;15.30;99.90
26278;DHT22;14000;52.056;8.510;2023-05-10T15:42:30;15.30;99.90
26278;DHT22;14000;52.056;8.510;2023-05-10T15:44:57;15.30;99.90
26278;DHT22;14000;52.056;8.510;2023-05-10T15:47:23;15.30;99.90
26278;DHT22;14000;52.056;8.510;2023-05-10T15:49:48;15.30;99.90
26278;DHT22;14000;52.056;8.510;2023-05-10T15:52:14;15.10;99.90
26278;DHT22;14000;52.056;8.510;2023-05-10T15:54:40;15.10;99.90
26278;DHT22;14000;52.056;8.510;2023-05-10T15:57:05;15.10;99.90
26278;DHT22;14000;52.056;8.510;2023-05-10T15:59:32;15.10;99.90
26278;DHT22;14000;52.056;8.510;2023-05-10T16:01:58;15.00;99.90
26278;DHT22;14000;52.056;8.510;2023-05-10T16:04:23;15.00;99.90